sensor_id;sensor_type;location;lat;lon;timestamp;pressure;altitude;pressure_sealevel;temperature;humidity
80124;BME280;69433;48.642;9.142;2024-03-07T00:02:10;97413.56;;;22.06;35.96
80124;BME280;69433;48.642;9.142;2024-03-07T00:07:57;97405.13;;;22.04;36.08
80124;BME280;69433;48.642;9.142;2024-03-07T00:10:49;97415.06;;;22.07;36.11
80124;BME280;69433;48.642;9.142;2024-03-07T00:16:13;97411.63;;;22.03;35.95
80124;BME280;69433;48.642;9.142;2024-03-07T00:18:53;97418.91;;;22.03;36.16
80124;BME280;69433;48.642;9.142;2024-03-07T00:21:26;97419.69;;;22.03;36.19
80124;BME280;69433;48.642;9.142;2024-03-07T00:23:53;97418.16;;;22.02;35.90
80124;BME280;69433;48.642;9.142;2024-03-07T00:26:22;97414.31;;;22.03;35.93
80124;BME280;69433;48.642;9.142;2024-03-07T00:28:56;97412.78;;;22.02;36.04
80124;BME280;69433;48.642;9.142;2024-03-07T00:31:47;97417.78;;;22.00;35.91
80124;BME280;69433;48.642;9.142;2024-03-07T00:34:23;97415.13;;;22.00;35.96
80124;BME280;69433;48.642;9.142;2024-03-07T00:37:26;97421.97;;;22.01;36.03
80124;BME280;69433;48.642;9.142;2024-03-07T00:40:07;97421.63;;;21.99;35.83
80124;BME280;69433;48.642;9.142;2024-03-07T00:42:41;97417.41;;;21.98;35.89
80124;BME280;69433;48.642;9.142;2024-03-07T00:45:11;97423.16;;;22.00;35.91
80124;BME280;69433;48.642;9.142;2024-03-07T00:47:36;97416.22;;;21.96;36.07
80124;BME280;69433;48.642;9.142;2024-03-07T00:50:12;97414.31;;;21.96;36.00
80124;BME280;69433;48.642;9.142;2024-03-07T00:53:09;97409.75;;;21.93;36.05
80124;BME280;69433;48.642;9.142;2024-03-07T00:55:38;97414.31;;;21.96;35.89
80124;BME280;69433;48.642;9.142;2024-03-07T00:58:34;97415.84;;;21.94;35.99
80124;BME280;69433;48.642;9.142;2024-03-07T01:01:00;97407.06;;;21.93;35.92
80124;BME280;69433;48.642;9.142;2024-03-07T01:03:42;97405.91;;;21.94;35.93
80124;BME280;69433;48.642;9.142;2024-03-07T01:12:45;97405.94;;;21.91;35.82
80124;BME280;69433;48.642;9.142;2024-03-07T01:15:11;97407.09;;;21.90;35.81
80124;BME280;69433;48.642;9.142;2024-03-07T01:17:36;97406.72;;;21.88;35.83
80124;BME280;69433;48.642;9.142;2024-03-07T01:23:18;97394.47;;;21.90;35.84
80124;BME280;69433;48.642;9.142;2024-03-07T01:26:03;97396.72;;;21.92;35.74
80124;BME280;69433;48.642;9.142;2024-03-07T01:28:57;97394.47;;;21.90;35.75
80124;BME280;69433;48.642;9.142;2024-03-07T01:31:49;97392.56;;;21.91;35.74
80124;BME280;69433;48.642;9.142;2024-03-07T01:34:33;97392.94;;;21.89;35.63
80124;BME280;69433;48.642;9.142;2024-03-07T01:37:20;97393.72;;;21.90;35.64
80124;BME280;69433;48.642;9.142;2024-03-07T01:43:14;97379.56;;;21.89;35.59
80124;BME280;69433;48.642;9.142;2024-03-07T01:45:40;97378.03;;;21.88;35.60
80124;BME280;69433;48.642;9.142;2024-03-07T01:51:27;97379.56;;;21.85;35.82
80124;BME280;69433;48.642;9.142;2024-03-07T01:54:15;97373.81;;;21.87;35.66
80124;BME280;69433;48.642;9.142;2024-03-07T01:56:43;97375.38;;;21.81;35.79
80124;BME280;69433;48.642;9.142;2024-03-07T02:05:25;97370.03;;;21.77;36.31
80124;BME280;69433;48.642;9.142;2024-03-07T02:08:08;97365.44;;;21.78;35.95
80124;BME280;69433;48.642;9.142;2024-03-07T02:14:04;97370.03;;;21.77;35.85
80124;BME280;69433;48.642;9.142;2024-03-07T02:16:33;97362.41;;;21.76;36.09
80124;BME280;69433;48.642;9.142;2024-03-07T02:19:17;97360.09;;;21.78;35.88
80124;BME280;69433;48.642;9.142;2024-03-07T02:21:52;97365.06;;;21.76;35.93
80124;BME280;69433;48.642;9.142;2024-03-07T02:24:28;97355.50;;;21.75;35.83
80124;BME280;69433;48.642;9.142;2024-03-07T02:27:13;97354.75;;;21.74;35.76
80124;BME280;69433;48.642;9.142;2024-03-07T02:29:54;97352.84;;;21.75;35.89
80124;BME280;69433;48.642;9.142;2024-03-07T02:32:30;97351.69;;;21.76;35.79
80124;BME280;69433;48.642;9.142;2024-03-07T02:38:51;97346.34;;;21.72;35.96
80124;BME280;69433;48.642;9.142;2024-03-07T02:44:41;97346.38;;;21.69;35.99
80124;BME280;69433;48.642;9.142;2024-03-07T02:47:06;97343.69;;;21.69;35.79
80124;BME280;69433;48.642;9.142;2024-03-07T02:49:50;97344.06;;;21.71;35.79
80124;BME280;69433;48.642;9.142;2024-03-07T02:52:30;97334.91;;;21.72;35.63
80124;BME280;69433;48.642;9.142;2024-03-07T02:55:17;97330.31;;;21.69;35.81
80124;BME280;69433;48.642;9.142;2024-03-07T02:57:52;97340.25;;;21.68;35.89
80124;BME280;69433;48.642;9.142;2024-03-07T03:03:40;97336.44;;;21.66;35.78
80124;BME280;69433;48.642;9.142;2024-03-07T03:09:29;97325.72;;;21.66;35.77
80124;BME280;69433;48.642;9.142;2024-03-07T03:11:54;97329.56;;;21.65;35.70
80124;BME280;69433;48.642;9.142;2024-03-07T03:14:45;97332.22;;;21.65;35.88
80124;BME280;69433;48.642;9.142;2024-03-07T03:20:31;97330.34;;;21.62;35.85
80124;BME280;69433;48.642;9.142;2024-03-07T03:23:19;97328.06;;;21.60;35.81
80124;BME280;69433;48.642;9.142;2024-03-07T03:26:07;97323.47;;;21.61;35.65
80124;BME280;69433;48.642;9.142;2024-03-07T03:28:49;97329.19;;;21.63;35.65
80124;BME280;69433;48.642;9.142;2024-03-07T03:31:37;97332.66;;;21.60;35.76
80124;BME280;69433;48.642;9.142;2024-03-07T03:38:15;97328.81;;;21.57;35.72
80124;BME280;69433;48.642;9.142;2024-03-07T03:40:48;97324.25;;;21.58;35.87
80124;BME280;69433;48.642;9.142;2024-03-07T03:43:20;97320.41;;;21.59;35.75
80124;BME280;69433;48.642;9.142;2024-03-07T03:48:41;97320.38;;;21.66;35.57
80124;BME280;69433;48.642;9.142;2024-03-07T03:51:08;97311.59;;;21.65;35.66
80124;BME280;69433;48.642;9.142;2024-03-07T03:53:34;97313.88;;;21.67;35.63
80124;BME280;69433;48.642;9.142;2024-03-07T03:56:11;97318.09;;;21.68;35.32
80124;BME280;69433;48.642;9.142;2024-03-07T03:58:40;97321.13;;;21.70;35.42
80124;BME280;69433;48.642;9.142;2024-03-07T04:01:28;97316.56;;;21.70;35.40
80124;BME280;69433;48.642;9.142;2024-03-07T04:03:53;97318.09;;;21.71;35.40
80124;BME280;69433;48.642;9.142;2024-03-07T04:06:20;97313.50;;;21.72;35.44
80124;BME280;69433;48.642;9.142;2024-03-07T04:12:08;97313.84;;;21.77;35.38
80124;BME280;69433;48.642;9.142;2024-03-07T04:15:12;97314.56;;;21.85;35.34
80124;BME280;69433;48.642;9.142;2024-03-07T04:17:55;97313.38;;;21.93;35.43
80124;BME280;69433;48.642;9.142;2024-03-07T04:20:22;97310.69;;;22.00;35.15
80124;BME280;69433;48.642;9.142;2024-03-07T04:22:49;97312.19;;;22.08;35.02
80124;BME280;69433;48.642;9.142;2024-03-07T04:25:16;97310.22;;;22.16;35.09
80124;BME280;69433;48.642;9.142;2024-03-07T04:27:42;97301.75;;;22.25;34.84
80124;BME280;69433;48.642;9.142;2024-03-07T04:30:08;97312.41;;;22.32;34.66
80124;BME280;69433;48.642;9.142;2024-03-07T04:39:25;97303.44;;;22.52;34.33
80124;BME280;69433;48.642;9.142;2024-03-07T04:42:13;97303.38;;;22.59;34.34
80124;BME280;69433;48.642;9.142;2024-03-07T04:45:04;97296.84;;;22.64;33.96
80124;BME280;69433;48.642;9.142;2024-03-07T04:47:30;97298.34;;;22.69;34.08
80124;BME280;69433;48.642;9.142;2024-03-07T04:49:57;97303.69;;;22.72;33.93
80124;BME280;69433;48.642;9.142;2024-03-07T04:52:39;97303.28;;;22.77;33.97
80124;BME280;69433;48.642;9.142;2024-03-07T04:55:38;97303.63;;;22.79;33.71
80124;BME280;69433;48.642;9.142;2024-03-07T05:01:40;97297.47;;;22.86;33.59
80124;BME280;69433;48.642;9.142;2024-03-07T05:04:21;97310.06;;;22.89;33.74
80124;BME280;69433;48.642;9.142;2024-03-07T05:10:05;97302.75;;;22.93;33.46
80124;BME280;69433;48.642;9.142;2024-03-07T05:12:42;97303.91;;;22.96;33.36
80124;BME280;69433;48.642;9.142;2024-03-07T05:15:20;97298.13;;;22.97;33.59
80124;BME280;69433;48.642;9.142;2024-03-07T05:18:02;97297.72;;;22.99;33.37
80124;BME280;69433;48.642;9.142;2024-03-07T05:20:27;97291.97;;;23.00;33.54
80124;BME280;69433;48.642;9.142;2024-03-07T05:23:13;97278.56;;;23.00;33.38
80124;BME280;69433;48.642;9.142;2024-03-07T05:25:40;97277.50;;;22.90;33.25
80124;BME280;69433;48.642;9.142;2024-03-07T05:28:32;97285.63;;;22.83;32.90
80124;BME280;69433;48.642;9.142;2024-03-07T05:31:21;97291.38;;;22.78;32.71
80124;BME280;69433;48.642;9.142;2024-03-07T05:33:49;97288.34;;;22.73;32.66
80124;BME280;69433;48.642;9.142;2024-03-07T05:39:35;97286.22;;;22.57;32.69
80124;BME280;69433;48.642;9.142;2024-03-07T05:42:05;97280.09;;;22.53;32.44
80124;BME280;69433;48.642;9.142;2024-03-07T05:44:45;97303.09;;;22.50;32.63
80124;BME280;69433;48.642;9.142;2024-03-07T05:47:31;97296.19;;;22.53;32.68
80124;BME280;69433;48.642;9.142;2024-03-07T05:50:15;97303.03;;;22.57;32.64
80124;BME280;69433;48.642;9.142;2024-03-07T05:52:59;97291.53;;;22.61;32.79
80124;BME280;69433;48.642;9.142;2024-03-07T05:55:31;97295.34;;;22.63;32.92
80124;BME280;69433;48.642;9.142;2024-03-07T05:58:12;97295.31;;;22.67;33.16
80124;BME280;69433;48.642;9.142;2024-03-07T06:00:56;97293.75;;;22.69;32.95
80124;BME280;69433;48.642;9.142;2024-03-07T06:10:17;97293.09;;;22.54;33.63
80124;BME280;69433;48.642;9.142;2024-03-07T06:13:14;97294.28;;;22.50;33.66
80124;BME280;69433;48.642;9.142;2024-03-07T06:16:03;97293.19;;;22.44;33.93
80124;BME280;69433;48.642;9.142;2024-03-07T06:18:41;97295.13;;;22.40;33.98
80124;BME280;69433;48.642;9.142;2024-03-07T06:21:31;97292.50;;;22.33;33.91
80124;BME280;69433;48.642;9.142;2024-03-07T06:27:00;97288.34;;;22.25;34.09
80124;BME280;69433;48.642;9.142;2024-03-07T06:29:41;97286.44;;;22.21;34.34
80124;BME280;69433;48.642;9.142;2024-03-07T06:32:33;97282.28;;;22.17;34.27
80124;BME280;69433;48.642;9.142;2024-03-07T06:38:51;97289.63;;;22.06;34.78
80124;BME280;69433;48.642;9.142;2024-03-07T06:44:26;97291.59;;;21.98;34.90
80124;BME280;69433;48.642;9.142;2024-03-07T06:53:22;97298.00;;;22.11;34.82
80124;BME280;69433;48.642;9.142;2024-03-07T06:55:53;97298.31;;;22.20;34.77
80124;BME280;69433;48.642;9.142;2024-03-07T06:58:28;97299.81;;;22.25;34.86
80124;BME280;69433;48.642;9.142;2024-03-07T07:00:58;97299.38;;;22.34;34.81
80124;BME280;69433;48.642;9.142;2024-03-07T07:03:33;97293.97;;;22.41;34.64
80124;BME280;69433;48.642;9.142;2024-03-07T07:06:09;97300.84;;;22.45;34.65
80124;BME280;69433;48.642;9.142;2024-03-07T07:09:06;97299.63;;;22.50;34.58
80124;BME280;69433;48.642;9.142;2024-03-07T07:11:42;97304.22;;;22.53;34.50
80124;BME280;69433;48.642;9.142;2024-03-07T07:20:50;97298.38;;;22.65;34.35
80124;BME280;69433;48.642;9.142;2024-03-07T07:26:40;97301.78;;;22.69;34.37
80124;BME280;69433;48.642;9.142;2024-03-07T07:29:37;97289.91;;;22.70;34.39
80124;BME280;69433;48.642;9.142;2024-03-07T07:32:12;97293.72;;;22.73;34.56
80124;BME280;69433;48.642;9.142;2024-03-07T07:34:57;97283.41;;;22.75;34.52
80124;BME280;69433;48.642;9.142;2024-03-07T07:37:56;97289.91;;;22.77;34.31
80124;BME280;69433;48.642;9.142;2024-03-07T07:40:23;97287.56;;;22.79;34.53
80124;BME280;69433;48.642;9.142;2024-03-07T07:43:12;97285.25;;;22.81;34.21
80124;BME280;69433;48.642;9.142;2024-03-07T07:45:58;97286.78;;;22.82;34.31
80124;BME280;69433;48.642;9.142;2024-03-07T07:48:40;97272.97;;;22.84;34.43
80124;BME280;69433;48.642;9.142;2024-03-07T07:54:34;97282.97;;;22.80;34.51
80124;BME280;69433;48.642;9.142;2024-03-07T07:56:59;97272.69;;;22.75;34.39
80124;BME280;69433;48.642;9.142;2024-03-07T08:09:02;97266.69;;;22.56;34.61
80124;BME280;69433;48.642;9.142;2024-03-07T08:11:27;97271.34;;;22.49;34.87
80124;BME280;69433;48.642;9.142;2024-03-07T08:20:45;97266.88;;;22.32;35.15
80124;BME280;69433;48.642;9.142;2024-03-07T08:26:46;97268.78;;;22.35;35.38
80124;BME280;69433;48.642;9.142;2024-03-07T08:29:17;97266.84;;;22.35;35.15
80124;BME280;69433;48.642;9.142;2024-03-07T08:31:56;97268.00;;;22.34;35.31
80124;BME280;69433;48.642;9.142;2024-03-07T08:34:28;97259.63;;;22.29;35.23
80124;BME280;69433;48.642;9.142;2024-03-07T08:37:01;97266.56;;;22.23;35.17
80124;BME280;69433;48.642;9.142;2024-03-07T08:39:51;97260.47;;;22.18;35.11
80124;BME280;69433;48.642;9.142;2024-03-07T08:42:23;97257.06;;;22.14;35.49
80124;BME280;69433;48.642;9.142;2024-03-07T08:44:59;97266.63;;;22.15;35.77
80124;BME280;69433;48.642;9.142;2024-03-07T08:50:35;97262.38;;;22.18;35.76
80124;BME280;69433;48.642;9.142;2024-03-07T08:53:12;97258.56;;;22.15;35.93
80124;BME280;69433;48.642;9.142;2024-03-07T08:55:39;97261.25;;;22.15;35.91
80124;BME280;69433;48.642;9.142;2024-03-07T08:58:32;97260.09;;;22.16;36.31
80124;BME280;69433;48.642;9.142;2024-03-07T09:01:12;97264.31;;;22.17;36.33
80124;BME280;69433;48.642;9.142;2024-03-07T09:03:52;97257.44;;;22.16;36.40
80124;BME280;69433;48.642;9.142;2024-03-07T09:06:24;97255.91;;;22.15;36.60
80124;BME280;69433;48.642;9.142;2024-03-07T09:09:12;97257.81;;;22.15;36.59
80124;BME280;69433;48.642;9.142;2024-03-07T09:12:02;97262.41;;;22.14;36.63
80124;BME280;69433;48.642;9.142;2024-03-07T09:14:32;97256.66;;;22.16;36.61
80124;BME280;69433;48.642;9.142;2024-03-07T09:17:01;97250.53;;;22.15;36.53
80124;BME280;69433;48.642;9.142;2024-03-07T09:19:37;97249.03;;;22.14;36.90
80124;BME280;69433;48.642;9.142;2024-03-07T09:22:07;97255.53;;;22.13;36.72
80124;BME280;69433;48.642;9.142;2024-03-07T09:24:44;97247.50;;;22.13;36.59
80124;BME280;69433;48.642;9.142;2024-03-07T09:27:23;97236.81;;;22.10;36.63
80124;BME280;69433;48.642;9.142;2024-03-07T09:29:57;97252.09;;;22.13;36.62
80124;BME280;69433;48.642;9.142;2024-03-07T09:32:57;97246.34;;;22.11;36.67
80124;BME280;69433;48.642;9.142;2024-03-07T09:35:48;97248.28;;;22.10;36.63
80124;BME280;69433;48.642;9.142;2024-03-07T09:41:47;97244.88;;;22.06;36.76
80124;BME280;69433;48.642;9.142;2024-03-07T09:44:20;97245.25;;;22.08;36.73
80124;BME280;69433;48.642;9.142;2024-03-07T09:46:50;97242.97;;;22.07;36.83
80124;BME280;69433;48.642;9.142;2024-03-07T09:49:16;97235.31;;;22.05;36.73
80124;BME280;69433;48.642;9.142;2024-03-07T09:52:00;97238.75;;;22.06;37.00
80124;BME280;69433;48.642;9.142;2024-03-07T09:57:35;97241.81;;;22.04;36.75
80124;BME280;69433;48.642;9.142;2024-03-07T10:03:29;97243.78;;;22.00;35.73
80124;BME280;69433;48.642;9.142;2024-03-07T10:06:15;97238.41;;;21.93;36.35
80124;BME280;69433;48.642;9.142;2024-03-07T10:08:43;97236.94;;;21.85;36.12
80124;BME280;69433;48.642;9.142;2024-03-07T10:11:26;97233.16;;;21.79;36.01
80124;BME280;69433;48.642;9.142;2024-03-07T10:13:55;97243.16;;;21.71;36.27
80124;BME280;69433;48.642;9.142;2024-03-07T10:16:29;97238.59;;;21.65;36.11
80124;BME280;69433;48.642;9.142;2024-03-07T10:19:25;97236.72;;;21.58;36.10
80124;BME280;69433;48.642;9.142;2024-03-07T10:22:05;97238.63;;;21.54;36.14
80124;BME280;69433;48.642;9.142;2024-03-07T10:24:53;97234.03;;;21.55;36.16
80124;BME280;69433;48.642;9.142;2024-03-07T10:27:38;97241.31;;;21.58;36.53
80124;BME280;69433;48.642;9.142;2024-03-07T10:30:19;97237.09;;;21.60;36.45
80124;BME280;69433;48.642;9.142;2024-03-07T10:32:55;97234.03;;;21.62;36.47
80124;BME280;69433;48.642;9.142;2024-03-07T10:35:29;97234.03;;;21.62;36.33
80124;BME280;69433;48.642;9.142;2024-03-07T10:37:59;97229.84;;;21.61;36.08
80124;BME280;69433;48.642;9.142;2024-03-07T10:40:38;97230.97;;;21.60;36.25
80124;BME280;69433;48.642;9.142;2024-03-07T10:43:22;97227.94;;;21.58;36.37
80124;BME280;69433;48.642;9.142;2024-03-07T10:46:18;97228.28;;;21.63;36.45
80124;BME280;69433;48.642;9.142;2024-03-07T10:48:55;97219.50;;;21.59;37.16
80124;BME280;69433;48.642;9.142;2024-03-07T10:51:40;97222.19;;;21.56;37.40
80124;BME280;69433;48.642;9.142;2024-03-07T10:54:34;97226.03;;;21.55;36.92
80124;BME280;69433;48.642;9.142;2024-03-07T11:00:30;97230.22;;;21.56;37.38
80124;BME280;69433;48.642;9.142;2024-03-07T11:03:37;97218.75;;;21.55;36.57
80124;BME280;69433;48.642;9.142;2024-03-07T11:06:06;97218.38;;;21.57;36.69
80124;BME280;69433;48.642;9.142;2024-03-07T11:08:37;97214.16;;;21.56;36.75
80124;BME280;69433;48.642;9.142;2024-03-07T11:11:03;97215.31;;;21.55;36.56
80124;BME280;69433;48.642;9.142;2024-03-07T11:16:40;97200.78;;;21.59;36.97
80124;BME280;69433;48.642;9.142;2024-03-07T11:26:05;97204.94;;;21.67;36.90
80124;BME280;69433;48.642;9.142;2024-03-07T11:28:50;97195.38;;;21.70;37.03
80124;BME280;69433;48.642;9.142;2024-03-07T11:34:54;97193.78;;;21.76;37.09
80124;BME280;69433;48.642;9.142;2024-03-07T11:37:47;97194.53;;;21.80;37.37
80124;BME280;69433;48.642;9.142;2024-03-07T11:43:35;97186.47;;;21.83;37.35
80124;BME280;69433;48.642;9.142;2024-03-07T11:46:32;97178.44;;;21.87;37.47
80124;BME280;69433;48.642;9.142;2024-03-07T11:49:18;97175.75;;;21.87;37.61
80124;BME280;69433;48.642;9.142;2024-03-07T11:51:58;97172.66;;;21.92;37.70
80124;BME280;69433;48.642;9.142;2024-03-07T11:54:34;97171.50;;;21.93;37.57
80124;BME280;69433;48.642;9.142;2024-03-07T11:57:12;97168.81;;;21.93;37.50
80124;BME280;69433;48.642;9.142;2024-03-07T12:03:00;97160.78;;;21.97;37.35
80124;BME280;69433;48.642;9.142;2024-03-07T12:05:42;97156.59;;;21.99;37.27
80124;BME280;69433;48.642;9.142;2024-03-07T12:12:01;97150.41;;;22.02;37.03
80124;BME280;69433;48.642;9.142;2024-03-07T12:14:45;97146.59;;;22.03;37.01
80124;BME280;69433;48.642;9.142;2024-03-07T12:17:26;97138.91;;;22.09;36.92
80124;BME280;69433;48.642;9.142;2024-03-07T12:23:15;97140.50;;;22.44;36.33
80124;BME280;69433;48.642;9.142;2024-03-07T12:28:47;97126.34;;;22.40;36.48
80124;BME280;69433;48.642;9.142;2024-03-07T12:34:45;97135.56;;;22.39;36.93
80124;BME280;69433;48.642;9.142;2024-03-07T12:37:12;97128.69;;;22.38;36.98
80124;BME280;69433;48.642;9.142;2024-03-07T12:40:10;97127.09;;;22.44;36.80
80124;BME280;69433;48.642;9.142;2024-03-07T12:42:52;97125.56;;;22.43;36.61
80124;BME280;69433;48.642;9.142;2024-03-07T12:48:42;97124.16;;;22.31;36.88
80124;BME280;69433;48.642;9.142;2024-03-07T12:51:11;97125.72;;;22.29;36.89
80124;BME280;69433;48.642;9.142;2024-03-07T12:54:04;97121.91;;;22.30;36.84
80124;BME280;69433;48.642;9.142;2024-03-07T12:56:37;97128.78;;;22.27;37.11
80124;BME280;69433;48.642;9.142;2024-03-07T12:59:12;97119.25;;;22.26;36.85
80124;BME280;69433;48.642;9.142;2024-03-07T13:01:48;97121.13;;;22.29;36.97
80124;BME280;69433;48.642;9.142;2024-03-07T13:04:33;97114.56;;;22.34;36.81
80124;BME280;69433;48.642;9.142;2024-03-07T13:07:07;97119.94;;;22.34;36.73
80124;BME280;69433;48.642;9.142;2024-03-07T13:10:03;97121.44;;;22.35;36.75
80124;BME280;69433;48.642;9.142;2024-03-07T13:12:32;97118.03;;;22.31;36.88
80124;BME280;69433;48.642;9.142;2024-03-07T13:18:07;97112.38;;;22.21;36.99
80124;BME280;69433;48.642;9.142;2024-03-07T13:20:58;97117.41;;;22.19;37.00
80124;BME280;69433;48.642;9.142;2024-03-07T13:23:41;97109.00;;;22.17;37.15
80124;BME280;69433;48.642;9.142;2024-03-07T13:32:58;97112.09;;;22.12;37.09
80124;BME280;69433;48.642;9.142;2024-03-07T13:35:32;97106.72;;;22.12;37.04
80124;BME280;69433;48.642;9.142;2024-03-07T13:38:08;97105.63;;;22.10;37.20
80124;BME280;69433;48.642;9.142;2024-03-07T13:40:35;97107.94;;;22.08;37.12
80124;BME280;69433;48.642;9.142;2024-03-07T13:43:36;97097.63;;;22.03;37.38
80124;BME280;69433;48.642;9.142;2024-03-07T13:46:09;97102.22;;;22.02;37.58
80124;BME280;69433;48.642;9.142;2024-03-07T13:48:47;97100.72;;;22.01;37.41
80124;BME280;69433;48.642;9.142;2024-03-07T13:51:12;97103.81;;;22.00;37.32
80124;BME280;69433;48.642;9.142;2024-03-07T13:53:49;97098.03;;;22.01;37.09
80124;BME280;69433;48.642;9.142;2024-03-07T14:00:16;97096.13;;;22.02;36.79
80124;BME280;69433;48.642;9.142;2024-03-07T14:06:03;97098.41;;;22.03;36.75
80124;BME280;69433;48.642;9.142;2024-03-07T14:37:25;97074.97;;;22.86;35.71
80124;BME280;69433;48.642;9.142;2024-03-07T14:40:13;97067.59;;;22.93;35.60
80124;BME280;69433;48.642;9.142;2024-03-07T14:45:55;97064.38;;;23.06;35.63
80124;BME280;69433;48.642;9.142;2024-03-07T14:48:46;97068.09;;;23.12;35.56
80124;BME280;69433;48.642;9.142;2024-03-07T14:54:34;97062.28;;;23.17;35.52
80124;BME280;69433;48.642;9.142;2024-03-07T14:57:35;97063.03;;;23.17;35.39
80124;BME280;69433;48.642;9.142;2024-03-07T15:00:08;97065.38;;;23.15;35.41
80124;BME280;69433;48.642;9.142;2024-03-07T15:06:08;97057.84;;;23.07;35.39
80124;BME280;69433;48.642;9.142;2024-03-07T15:08:44;97054.81;;;23.05;35.45
80124;BME280;69433;48.642;9.142;2024-03-07T15:14:32;97055.25;;;23.00;35.57
80124;BME280;69433;48.642;9.142;2024-03-07T15:20:20;97051.41;;;23.01;35.66
80124;BME280;69433;48.642;9.142;2024-03-07T15:23:06;97046.00;;;23.04;35.40
80124;BME280;69433;48.642;9.142;2024-03-07T15:26:02;97048.97;;;23.10;35.57
80124;BME280;69433;48.642;9.142;2024-03-07T15:28:36;97042.00;;;23.16;35.39
80124;BME280;69433;48.642;9.142;2024-03-07T15:31:27;97046.91;;;23.21;35.15
80124;BME280;69433;48.642;9.142;2024-03-07T15:34:14;97041.09;;;23.26;35.13
80124;BME280;69433;48.642;9.142;2024-03-07T15:36:41;97047.91;;;23.30;35.12
80124;BME280;69433;48.642;9.142;2024-03-07T15:45:36;97040.88;;;23.40;34.80
80124;BME280;69433;48.642;9.142;2024-03-07T15:48:15;97045.75;;;23.45;34.62
80124;BME280;69433;48.642;9.142;2024-03-07T15:50:43;97034.28;;;23.45;34.69
80124;BME280;69433;48.642;9.142;2024-03-07T15:56:55;97030.75;;;23.51;34.96
80124;BME280;69433;48.642;9.142;2024-03-07T15:59:43;97032.28;;;23.52;34.65
80124;BME280;69433;48.642;9.142;2024-03-07T16:02:11;97027.28;;;23.54;34.82
80124;BME280;69433;48.642;9.142;2024-03-07T16:08:01;97030.63;;;23.58;34.75
80124;BME280;69433;48.642;9.142;2024-03-07T16:10:48;97032.50;;;23.61;34.47
80124;BME280;69433;48.642;9.142;2024-03-07T16:19:58;97024.81;;;23.63;34.56
80124;BME280;69433;48.642;9.142;2024-03-07T16:22:43;97034.72;;;23.66;34.44
80124;BME280;69433;48.642;9.142;2024-03-07T16:25:26;97031.34;;;23.62;34.61
80124;BME280;69433;48.642;9.142;2024-03-07T16:34:30;97024.75;;;23.67;34.45
80124;BME280;69433;48.642;9.142;2024-03-07T16:37:14;97018.16;;;23.72;34.56
80124;BME280;69433;48.642;9.142;2024-03-07T16:42:59;97016.56;;;23.74;34.29
80124;BME280;69433;48.642;9.142;2024-03-07T16:48:56;97017.31;;;23.75;34.16
80124;BME280;69433;48.642;9.142;2024-03-07T16:51:36;97021.53;;;23.76;34.53
80124;BME280;69433;48.642;9.142;2024-03-07T16:54:21;97018.03;;;23.79;34.09
80124;BME280;69433;48.642;9.142;2024-03-07T16:57:00;97017.22;;;23.82;34.18
80124;BME280;69433;48.642;9.142;2024-03-07T16:59:34;97016.38;;;23.85;34.52
80124;BME280;69433;48.642;9.142;2024-03-07T17:05:31;97020.13;;;23.91;34.67
80124;BME280;69433;48.642;9.142;2024-03-07T17:11:12;97014.84;;;23.84;33.55
80124;BME280;69433;48.642;9.142;2024-03-07T17:13:45;97018.84;;;23.76;32.80
80124;BME280;69433;48.642;9.142;2024-03-07T17:16:13;97009.00;;;23.69;33.13
80124;BME280;69433;48.642;9.142;2024-03-07T17:18:56;97015.25;;;23.62;32.40
80124;BME280;69433;48.642;9.142;2024-03-07T17:21:33;97020.31;;;23.57;32.74
80124;BME280;69433;48.642;9.142;2024-03-07T17:24:06;97024.22;;;23.52;32.72
80124;BME280;69433;48.642;9.142;2024-03-07T17:27:06;97019.28;;;23.51;33.07
80124;BME280;69433;48.642;9.142;2024-03-07T17:33:05;97017.00;;;23.49;33.17
80124;BME280;69433;48.642;9.142;2024-03-07T17:35:45;97015.81;;;23.50;33.34
80124;BME280;69433;48.642;9.142;2024-03-07T17:38:19;97018.88;;;23.52;33.37
80124;BME280;69433;48.642;9.142;2024-03-07T17:41:20;97007.66;;;23.57;33.45
80124;BME280;69433;48.642;9.142;2024-03-07T17:43:55;97020.63;;;23.62;33.13
80124;BME280;69433;48.642;9.142;2024-03-07T17:46:34;97019.03;;;23.65;33.37
80124;BME280;69433;48.642;9.142;2024-03-07T17:58:50;97030.34;;;23.76;33.36
80124;BME280;69433;48.642;9.142;2024-03-07T18:01:23;97028.78;;;23.79;33.52
80124;BME280;69433;48.642;9.142;2024-03-07T18:04:17;97025.28;;;23.82;33.28
80124;BME280;69433;48.642;9.142;2024-03-07T18:10:05;97026.72;;;23.86;33.41
80124;BME280;69433;48.642;9.142;2024-03-07T18:12:59;97020.19;;;23.87;33.14
80124;BME280;69433;48.642;9.142;2024-03-07T18:15:33;97023.63;;;23.88;33.40
80124;BME280;69433;48.642;9.142;2024-03-07T18:18:12;97023.97;;;23.90;33.18
80124;BME280;69433;48.642;9.142;2024-03-07T18:21:14;97020.13;;;23.91;33.49
80124;BME280;69433;48.642;9.142;2024-03-07T18:23:42;97018.53;;;23.93;33.22
80124;BME280;69433;48.642;9.142;2024-03-07T18:29:40;97006.22;;;23.96;33.32
80124;BME280;69433;48.642;9.142;2024-03-07T18:32:32;97007.31;;;23.98;33.43
80124;BME280;69433;48.642;9.142;2024-03-07T18:38:21;97002.31;;;24.00;33.45
80124;BME280;69433;48.642;9.142;2024-03-07T18:44:10;96999.22;;;24.02;33.59
80124;BME280;69433;48.642;9.142;2024-03-07T18:47:02;97004.91;;;24.04;33.37
80124;BME280;69433;48.642;9.142;2024-03-07T18:56:08;97001.06;;;24.05;33.19
80124;BME280;69433;48.642;9.142;2024-03-07T18:58:55;97007.53;;;24.08;33.17
80124;BME280;69433;48.642;9.142;2024-03-07T19:01:35;96996.38;;;24.09;33.16
80124;BME280;69433;48.642;9.142;2024-03-07T19:04:21;96995.97;;;24.11;33.16
80124;BME280;69433;48.642;9.142;2024-03-07T19:07:18;96985.66;;;24.09;33.29
80124;BME280;69433;48.642;9.142;2024-03-07T19:16:36;96979.09;;;24.10;33.23
80124;BME280;69433;48.642;9.142;2024-03-07T19:19:10;96981.44;;;24.08;33.65
80124;BME280;69433;48.642;9.142;2024-03-07T19:24:58;96970.84;;;24.01;33.47
80124;BME280;69433;48.642;9.142;2024-03-07T19:33:28;96970.28;;;23.90;33.58